Terminal Aerodrome Forecast
Issued by NWS

Home | Current Version | Previous Version | Text Only | Print | Product List | Glossary On
Versions: 1 2 3 4 5 6 7 8 9 10 11 12 13 14 15 16 17 18 19 20 21 22 23 24 25 26 27 28
000
FTUS43 KLOT 281936 AAA
TAFMDW
TAF AMD
KMDW 281936Z 2820/2918 09009KT P6SM SCT025 OVC040
      TEMPO 2820/2824 6SM -RA
     FM290200 04010KT 6SM BR SCT010 OVC020
     FM290900 04013G20KT 6SM BR SCT008 OVC015
     FM291500 04018G27KT 6SM -SHRA OVC012=

USA.gov is the U.S. government's official web portal to all federal, state and local government web resources and services.